Terminal Aerodrome Forecast
Issued by NWS

Home | Current Version | Previous Version | Text Only | Print | Product List | Glossary On
Versions: 1 2 3 4 5 6 7 8 9 10 11 12 13 14 15 16 17 18 19 20 21 22 23 24 25 26 27 28 29 30
000
FTUS46 KEKA 281400 AAB
TAFCEC
TAF AMD
KCEC 281411Z 2814/2912 VRB03KT 1/4SM FG VV002
     FM281600 VRB03KT 3/4SM BR OVC003
     FM281800 24005KT P6SM BKN010
     FM282000 20007KT P6SM SKC
     FM290300 17006KT P6SM SKC
     FM290500 VRB03KT 5SM BR OVC005=

USA.gov is the U.S. government's official web portal to all federal, state and local government web resources and services.